Time;durP1;ratioP1;P1;durP2;ratioP2;P2;SDS_P1;SDS_P2;PMS_P1;PMS_P2;Temp;Humidity;BMP_temperature;BMP_pressure;BME280_temperature;BME280_humidity;BME280_pressure;Samples;Min_cycle;Max_cycle;Signal;HPM_P1;HPM_P2
2022/01/26 00:05:47;;;;;;;15.65;7.07;;;4.80;99.90;;;;;;5094044;28;20035;-61
2022/01/26 00:07:48;;;;;;;16.88;7.53;;;4.80;99.90;;;;;;5105907;28;20552;-60
2022/01/26 00:11:13;;;;;;;17.20;8.13;;;4.80;99.90;;;;;;5105994;28;20047;-61
2022/01/26 00:14:41;;;;;;;21.63;8.68;;;4.80;99.90;;;;;;5103540;28;20100;-61
2022/01/26 00:18:04;;;;;;;16.48;7.22;;;4.80;99.90;;;;;;5095813;28;20526;-61
2022/01/26 00:21:36;;;;;;;18.00;7.20;;;4.80;99.90;;;;;;5104050;28;20043;-60
2022/01/26 00:27:08;;;;;;;17.20;7.00;;;4.80;99.90;;;;;;5108961;28;20055;-60
2022/01/26 00:29:39;;;;;;;15.23;7.57;;;4.80;99.90;;;;;;5091795;28;20097;-61
2022/01/26 00:40:35;;;;;;;12.07;6.65;;;4.80;99.90;;;;;;5102323;28;20099;-61
2022/01/26 00:43:13;;;;;;;14.45;6.63;;;4.80;99.90;;;;;;5099690;28;20115;-60
2022/01/26 00:45:40;;;;;;;17.58;7.68;;;4.80;99.90;;;;;;5098037;28;20039;-61
2022/01/26 00:48:09;;;;;;;12.75;6.68;;;4.80;99.90;;;;;;5107327;28;20020;-60
2022/01/26 00:50:36;;;;;;;11.05;5.57;;;4.80;99.90;;;;;;5097852;28;20024;-61
2022/01/26 00:53:03;;;;;;;13.45;6.45;;;4.80;99.90;;;;;;5099461;28;20031;-60
2022/01/26 00:55:28;;;;;;;15.38;7.25;;;4.80;99.90;;;;;;5098870;28;20020;-61
2022/01/26 00:57:54;;;;;;;12.48;6.63;;;4.80;99.90;;;;;;5107369;28;20050;-60
2022/01/26 01:00:22;;;;;;;16.85;7.47;;;4.80;99.90;;;;;;5098058;28;20069;-61
2022/01/26 01:02:49;;;;;;;15.00;6.68;;;4.80;99.90;;;;;;5088045;28;20089;-60
2022/01/26 01:05:19;;;;;;;15.50;6.35;;;4.80;99.90;;;;;;5105545;28;20444;-61
2022/01/26 01:07:48;;;;;;;11.18;5.90;;;4.80;99.90;;;;;;5107426;28;20395;-61
2022/01/26 01:10:17;;;;;;;11.32;5.63;;;4.80;99.90;;;;;;5105456;28;20518;-60
2022/01/26 01:12:44;;;;;;;14.73;6.68;;;4.80;99.90;;;;;;5103236;28;20070;-61
2022/01/26 01:15:12;;;;;;;11.98;6.30;;;4.80;99.90;;;;;;5100339;28;20058;-61
2022/01/26 01:17:42;;;;;;;12.77;6.28;;;4.80;99.90;;;;;;5099514;28;20028;-60
2022/01/26 01:23:27;;;;;;;12.73;6.05;;;4.80;99.90;;;;;;5101300;28;20408;-60
2022/01/26 01:26:11;;;;;;;12.88;5.90;;;4.80;99.90;;;;;;5102178;28;20029;-60
2022/01/26 01:28:56;;;;;;;13.10;6.90;;;4.70;99.90;;;;;;5101517;28;20028;-61
2022/01/26 01:31:41;;;;;;;12.85;5.93;;;4.80;99.90;;;;;;5100711;28;20055;-61
2022/01/26 01:34:08;;;;;;;12.07;5.68;;;4.80;99.90;;;;;;5090297;28;20157;-61
2022/01/26 01:36:37;;;;;;;13.38;6.05;;;4.70;99.90;;;;;;5108313;28;20372;-61
2022/01/26 01:39:04;;;;;;;12.13;6.45;;;4.70;99.90;;;;;;5110596;28;20050;-60
2022/01/26 01:41:29;;;;;;;11.35;6.18;;;4.70;99.90;;;;;;5094240;28;20021;-61
2022/01/26 01:43:55;;;;;;;12.90;6.05;;;4.70;99.90;;;;;;5102541;28;20026;-60
2022/01/26 01:46:20;;;;;;;13.77;6.80;;;4.60;99.90;;;;;;5108465;28;20032;-61
2022/01/26 01:48:46;;;;;;;13.35;6.65;;;4.60;99.90;;;;;;5110250;28;20023;-60
2022/01/26 01:51:15;;;;;;;11.10;6.25;;;4.60;99.90;;;;;;5096539;28;20399;-61
2022/01/26 01:53:43;;;;;;;11.20;5.88;;;4.60;99.90;;;;;;5110060;28;20099;-61
2022/01/26 01:56:12;;;;;;;11.95;5.68;;;4.60;99.90;;;;;;5107894;28;20059;-60
2022/01/26 01:58:38;;;;;;;13.02;5.80;;;4.60;99.90;;;;;;5110195;28;20563;-61
2022/01/26 02:01:05;;;;;;;11.25;6.15;;;4.60;99.90;;;;;;5107966;28;20080;-60
2022/01/26 02:03:31;;;;;;;10.90;5.35;;;4.60;99.90;;;;;;5110187;28;20092;-61
2022/01/26 02:05:57;;;;;;;10.23;5.38;;;4.60;99.90;;;;;;5107919;28;20098;-61
2022/01/26 02:08:23;;;;;;;9.73;4.78;;;4.60;99.90;;;;;;5109960;28;20119;-61
2022/01/26 02:10:48;;;;;;;10.48;5.22;;;4.60;99.90;;;;;;5108099;28;20081;-60
2022/01/26 02:13:21;;;;;;;9.40;4.68;;;4.70;99.90;;;;;;5109709;28;20100;-61
2022/01/26 02:21:16;;;;;;;6.75;3.85;;;4.60;99.90;;;;;;5097589;28;20097;-61
2022/01/26 02:51:36;;;;;;;11.25;5.32;;;4.60;99.90;;;;;;5088957;28;20039;-60
2022/01/26 02:54:36;;;;;;;12.45;6.00;;;4.50;99.90;;;;;;5101260;28;20027;-60
2022/01/26 03:02:35;;;;;;;10.13;5.00;;;4.60;99.90;;;;;;5089071;28;20035;-60
2022/01/26 03:05:02;;;;;;;8.52;4.68;;;4.50;99.90;;;;;;5088799;28;20495;-61
2022/01/26 03:07:41;;;;;;;11.63;4.60;;;4.60;99.90;;;;;;5088447;28;20035;-61
2022/01/26 03:10:17;;;;;;;9.48;4.05;;;4.50;99.90;;;;;;5112395;28;20024;-61
2022/01/26 03:12:51;;;;;;;9.38;4.70;;;4.50;99.90;;;;;;5094295;28;20509;-60
2022/01/26 03:15:28;;;;;;;8.75;4.50;;;4.50;99.90;;;;;;5113670;28;20025;-61
2022/01/26 03:20:19;;;;;;;8.52;3.95;;;4.40;99.90;;;;;;5112997;28;20071;-60
2022/01/26 03:35:50;;;;;;;8.20;4.50;;;4.40;99.90;;;;;;5113047;28;20037;-65
2022/01/26 03:38:21;;;;;;;11.05;4.50;;;4.40;99.90;;;;;;5111022;28;20035;-64
2022/01/26 03:40:56;;;;;;;8.68;4.50;;;4.40;99.90;;;;;;5113186;28;20204;-63
2022/01/26 03:43:21;;;;;;;6.85;3.53;;;4.40;99.90;;;;;;5095554;28;20058;-64
2022/01/26 03:45:47;;;;;;;9.57;4.75;;;4.50;99.90;;;;;;5112552;28;20051;-63
2022/01/26 03:48:12;;;;;;;10.35;4.93;;;4.50;99.90;;;;;;5110766;28;20031;-64
2022/01/26 03:50:38;;;;;;;10.40;5.22;;;4.40;99.90;;;;;;5112625;28;20485;-64
2022/01/26 03:53:03;;;;;;;10.90;4.32;;;4.40;99.90;;;;;;5110867;28;20483;-64
2022/01/26 03:55:29;;;;;;;9.73;5.32;;;4.40;99.90;;;;;;5112590;28;20095;-64
2022/01/26 03:57:54;;;;;;;11.10;5.78;;;4.40;99.90;;;;;;5110346;28;20080;-64
2022/01/26 04:00:19;;;;;;;9.85;5.25;;;4.40;99.90;;;;;;5112581;28;20391;-64
2022/01/26 04:02:45;;;;;;;12.60;5.68;;;4.40;99.90;;;;;;5110319;28;20031;-64
2022/01/26 04:05:12;;;;;;;10.13;5.43;;;4.40;99.90;;;;;;5112529;28;20034;-64
2022/01/26 04:07:38;;;;;;;10.63;4.95;;;4.40;99.90;;;;;;5110228;28;20020;-64
2022/01/26 04:10:15;;;;;;;13.10;6.18;;;4.40;99.90;;;;;;5112418;28;20015;-64
2022/01/26 04:12:41;;;;;;;10.18;5.30;;;4.40;99.90;;;;;;5093104;28;21094;-64
2022/01/26 04:15:17;;;;;;;10.93;5.63;;;4.40;99.90;;;;;;5112329;28;20070;-64
2022/01/26 04:17:43;;;;;;;;;;;4.40;99.90;;;;;;5093505;28;20074;-64
2022/01/26 04:20:08;;;;;;;16.67;6.07;;;4.40;99.90;;;;;;5111509;28;19945;-64
2022/01/26 04:22:48;;;;;;;14.40;6.05;;;4.40;99.90;;;;;;5110036;28;20303;-64
2022/01/26 04:25:19;;;;;;;16.30;6.60;;;4.40;99.90;;;;;;5111960;28;20019;-64
2022/01/26 04:27:48;;;;;;;15.27;7.45;;;4.40;99.90;;;;;;5093003;28;20030;-64
2022/01/26 04:30:13;;;;;;;15.63;6.70;;;4.40;99.90;;;;;;5111997;28;20490;-64
2022/01/26 04:32:39;;;;;;;12.43;5.38;;;4.40;99.90;;;;;;5110100;28;20119;-64
2022/01/26 04:35:06;;;;;;;20.75;7.53;;;4.40;99.90;;;;;;5111760;28;20023;-64
2022/01/26 04:40:17;;;;;;;17.42;7.05;;;4.30;99.90;;;;;;5112319;28;20489;-64
2022/01/26 04:43:02;;;;;;;16.25;7.10;;;4.30;99.90;;;;;;5102734;28;20027;-64
2022/01/26 04:45:27;;;;;;;16.88;6.55;;;4.30;99.90;;;;;;5091499;28;20499;-64
2022/01/26 04:47:53;;;;;;;17.92;7.50;;;4.30;99.90;;;;;;5108849;28;20038;-64
2022/01/26 04:50:18;;;;;;;17.58;7.93;;;4.30;99.90;;;;;;5111750;28;20508;-64
2022/01/26 04:52:46;;;;;;;17.20;7.50;;;4.30;99.90;;;;;;5109523;28;20024;-64
2022/01/26 04:55:12;;;;;;;17.98;7.70;;;4.30;99.90;;;;;;5111443;28;20387;-64
2022/01/26 04:57:38;;;;;;;15.48;7.90;;;4.30;99.90;;;;;;5097069;28;20036;-64
2022/01/26 05:00:06;;;;;;;19.67;7.47;;;4.30;99.90;;;;;;5108803;28;20466;-64
2022/01/26 05:02:32;;;;;;;13.02;6.60;;;4.30;99.90;;;;;;5111553;28;20031;-65
2022/01/26 05:04:57;;;;;;;17.95;7.45;;;4.30;99.90;;;;;;5109398;28;20156;-65
2022/01/26 05:07:23;;;;;;;14.15;6.18;;;4.30;99.90;;;;;;5111454;28;20031;-65
2022/01/26 05:09:48;;;;;;;19.23;8.00;;;4.30;99.90;;;;;;5109354;28;20669;-64
2022/01/26 05:12:15;;;;;;;18.40;7.35;;;4.30;99.90;;;;;;5111438;28;20028;-65
2022/01/26 05:14:43;;;;;;;19.60;7.95;;;4.30;99.90;;;;;;5109308;28;20108;-65
2022/01/26 05:17:08;;;;;;;16.83;7.18;;;4.30;99.90;;;;;;5111158;28;20118;-65
2022/01/26 05:19:34;;;;;;;18.20;8.25;;;4.30;99.90;;;;;;5109102;28;20123;-65
2022/01/26 05:21:59;;;;;;;17.52;7.88;;;4.20;99.90;;;;;;5111067;28;20031;-66
2022/01/26 05:24:25;;;;;;;21.13;9.57;;;4.20;99.90;;;;;;5109076;28;20028;-65
2022/01/26 05:26:50;;;;;;;18.42;8.60;;;4.20;99.90;;;;;;5111119;28;20517;-65
2022/01/26 05:29:16;;;;;;;18.25;8.57;;;4.20;99.90;;;;;;5108970;28;20024;-65
2022/01/26 05:31:41;;;;;;;18.80;7.90;;;4.30;99.90;;;;;;5110379;28;20024;-65
2022/01/26 05:34:07;;;;;;;17.35;8.60;;;4.20;99.90;;;;;;5108832;28;20024;-65
2022/01/26 05:36:32;;;;;;;16.50;7.50;;;4.20;99.90;;;;;;5111042;28;20026;-65
2022/01/26 05:38:58;;;;;;;18.38;8.05;;;4.20;99.90;;;;;;5108776;28;20067;-66
2022/01/26 05:41:23;;;;;;;18.02;7.43;;;4.20;99.90;;;;;;5111035;28;20026;-65
2022/01/26 05:43:49;;;;;;;19.83;7.88;;;4.20;99.90;;;;;;5105176;28;20028;-65
2022/01/26 05:46:23;;;;;;;20.33;8.68;;;4.20;99.90;;;;;;5091935;28;20038;-66
2022/01/26 05:48:50;;;;;;;20.70;7.32;;;4.20;99.90;;;;;;5090568;28;20415;-65
2022/01/26 05:51:16;;;;;;;17.73;7.25;;;4.20;99.90;;;;;;5108196;28;20384;-66
2022/01/26 05:53:42;;;;;;;20.38;7.15;;;4.10;99.90;;;;;;5110555;28;20027;-66
2022/01/26 05:56:08;;;;;;;22.52;8.95;;;4.20;99.90;;;;;;5094385;28;20479;-65
2022/01/26 05:58:34;;;;;;;19.85;8.02;;;4.20;99.90;;;;;;5109000;28;20039;-65
2022/01/26 06:01:00;;;;;;;19.80;7.95;;;4.10;99.90;;;;;;5101312;28;20036;-68
2022/01/26 06:03:28;;;;;;;20.65;9.13;;;4.10;99.90;;;;;;5109144;28;20438;-66
2022/01/26 06:05:54;;;;;;;20.50;7.22;;;4.10;99.90;;;;;;5107433;28;20077;-66
2022/01/26 06:08:21;;;;;;;16.92;8.27;;;4.10;99.90;;;;;;5109358;28;20027;-66
2022/01/26 06:10:47;;;;;;;18.60;8.07;;;4.10;99.90;;;;;;5107416;28;20115;-65
2022/01/26 06:13:13;;;;;;;16.77;7.75;;;4.20;99.90;;;;;;5109258;28;20073;-65
2022/01/26 06:15:38;;;;;;;17.65;7.93;;;4.10;99.90;;;;;;5106910;28;20023;-66
2022/01/26 06:18:04;;;;;;;19.08;8.35;;;4.10;99.90;;;;;;5108774;28;20046;-67
2022/01/26 06:20:29;;;;;;;18.35;6.80;;;4.10;99.90;;;;;;5106781;28;20127;-67
2022/01/26 06:22:55;;;;;;;15.60;7.50;;;4.00;99.90;;;;;;5108813;28;20028;-66
2022/01/26 06:26:00;;;;;;;15.60;6.68;;;4.00;99.90;;;;;;5107064;28;20118;-67
2022/01/26 06:29:25;;;;;;;15.73;6.18;;;4.00;99.90;;;;;;5102283;28;20059;-66
2022/01/26 06:32:51;;;;;;;13.48;6.13;;;3.90;99.90;;;;;;5108243;28;20043;-67
2022/01/26 06:36:16;;;;;;;13.02;6.18;;;3.90;99.90;;;;;;5104359;28;20046;-67
2022/01/26 06:39:41;;;;;;;11.45;5.32;;;3.80;99.90;;;;;;5105997;28;20044;-66
2022/01/26 06:43:13;;;;;;;14.23;5.70;;;3.80;99.90;;;;;;5095327;28;20480;-67
2022/01/26 06:46:51;;;;;;;14.30;6.22;;;3.80;99.90;;;;;;5099962;28;20067;-67
2022/01/26 06:50:04;;;;;;;10.55;4.93;;;3.80;99.90;;;;;;5083559;28;20068;-67
2022/01/26 06:53:28;;;;;;;12.27;5.53;;;3.80;99.90;;;;;;5099784;28;20040;-67
2022/01/26 06:56:54;;;;;;;13.80;5.40;;;3.80;99.90;;;;;;5108061;28;20660;-65
2022/01/26 07:00:19;;;;;;;13.15;4.88;;;3.80;99.90;;;;;;5102893;28;20055;-63
2022/01/26 07:03:46;;;;;;;11.20;4.80;;;3.80;99.90;;;;;;5104275;28;20047;-67
2022/01/26 07:07:10;;;;;;;10.18;4.50;;;3.80;99.90;;;;;;5087520;28;20051;-63
2022/01/26 07:10:35;;;;;;;10.52;4.82;;;3.80;99.90;;;;;;5105112;28;20036;-63
2022/01/26 07:14:02;;;;;;;12.25;5.10;;;3.80;99.90;;;;;;5091543;28;20487;-65
2022/01/26 07:23:55;;;;;;;17.40;6.50;;;3.80;99.90;;;;;;5100792;28;20491;-63
2022/01/26 07:27:21;;;;;;;13.50;6.05;;;3.80;99.90;;;;;;5102202;28;20088;-65
2022/01/26 07:30:46;;;;;;;13.13;5.55;;;3.80;99.90;;;;;;5104483;28;20074;-62
2022/01/26 07:34:12;;;;;;;13.23;6.18;;;3.80;99.90;;;;;;5102959;28;20027;-62
2022/01/26 07:37:37;;;;;;;13.50;6.18;;;3.80;99.90;;;;;;5087292;28;20047;-62
2022/01/26 07:41:02;;;;;;;13.85;6.40;;;3.90;99.90;;;;;;5101652;28;20089;-64
2022/01/26 07:44:28;;;;;;;15.02;6.10;;;3.80;99.90;;;;;;5097380;28;20505;-62
2022/01/26 07:47:55;;;;;;;13.70;6.05;;;3.90;99.90;;;;;;5102097;28;20177;-64
2022/01/26 07:51:18;;;;;;;16.67;6.60;;;3.90;99.90;;;;;;5105427;28;20039;-63
2022/01/26 07:54:45;;;;;;;16.13;6.80;;;3.90;99.90;;;;;;5099924;28;20032;-63
2022/01/26 07:58:09;;;;;;;15.57;7.40;;;3.90;99.90;;;;;;5105267;28;20054;-65
2022/01/26 08:01:35;;;;;;;11.82;6.13;;;4.00;99.90;;;;;;5105781;28;20538;-65
2022/01/26 08:05:00;;;;;;;18.48;7.38;;;4.00;99.90;;;;;;5103562;28;20066;-62
2022/01/26 08:08:26;;;;;;;23.83;8.75;;;4.00;99.90;;;;;;5106438;28;20043;-62
2022/01/26 08:11:50;;;;;;;16.85;7.32;;;3.90;99.90;;;;;;5110959;28;20577;-65
2022/01/26 08:15:16;;;;;;;14.63;7.05;;;4.00;99.90;;;;;;5107336;28;20039;-63
2022/01/26 08:18:41;;;;;;;23.08;7.68;;;4.00;99.90;;;;;;5106761;28;20044;-62
2022/01/26 08:22:06;;;;;;;20.50;7.97;;;4.00;99.90;;;;;;5090743;28;20068;-63
2022/01/26 08:25:32;;;;;;;21.25;8.80;;;4.10;99.90;;;;;;5107550;28;20039;-63
2022/01/26 08:28:57;;;;;;;25.92;9.30;;;4.10;99.90;;;;;;5103284;28;20042;-63
2022/01/26 08:32:23;;;;;;;18.85;7.95;;;4.00;99.90;;;;;;5105378;28;20031;-64
2022/01/26 08:35:48;;;;;;;18.50;8.45;;;4.00;99.90;;;;;;5109791;28;20097;-64
2022/01/26 08:39:13;;;;;;;23.08;9.32;;;4.00;99.90;;;;;;5103333;28;20108;-63
2022/01/26 08:42:42;;;;;;;22.00;9.98;;;4.00;99.90;;;;;;5104203;28;20031;-64
2022/01/26 08:45:47;;;;;;;;;;;4.10;99.90;;;;;;5111342;28;20406;-65
2022/01/26 08:49:12;;;;;;;21.33;7.78;;;4.10;99.90;;;;;;5102953;28;19908;-64
2022/01/26 08:52:38;;;;;;;22.98;9.05;;;4.30;99.90;;;;;;5104693;28;20038;-65
2022/01/26 08:56:03;;;;;;;22.52;8.73;;;4.40;99.90;;;;;;5104452;28;20077;-64
2022/01/26 08:59:28;;;;;;;21.48;8.48;;;4.40;99.90;;;;;;5102991;28;20181;-65
2022/01/26 09:02:57;;;;;;;17.95;8.13;;;4.40;99.90;;;;;;5104501;28;20028;-64
2022/01/26 09:06:22;;;;;;;19.73;8.50;;;4.50;99.90;;;;;;5094721;28;20122;-64
2022/01/26 09:09:47;;;;;;;19.35;9.27;;;4.60;99.90;;;;;;5106326;28;20032;-64
2022/01/26 09:13:13;;;;;;;18.50;7.25;;;4.70;99.90;;;;;;5104491;28;20146;-64
2022/01/26 09:16:38;;;;;;;23.08;8.93;;;4.70;99.90;;;;;;5108400;28;20058;-64
2022/01/26 09:20:03;;;;;;;21.85;9.65;;;4.90;99.90;;;;;;5105669;28;20035;-64
2022/01/26 09:23:22;;;;;;;16.98;7.53;;;4.80;99.90;;;;;;5088862;28;20048;-64
2022/01/26 09:25:48;;;;;;;23.35;8.15;;;4.80;99.90;;;;;;5091649;28;20498;-58
2022/01/26 09:28:13;;;;;;;17.83;7.63;;;4.90;99.90;;;;;;5107599;28;20031;-62
2022/01/26 09:30:39;;;;;;;22.05;8.57;;;4.90;99.90;;;;;;5109606;28;20096;-59
2022/01/26 09:33:05;;;;;;;17.33;7.88;;;4.90;99.90;;;;;;5107299;28;20040;-59
2022/01/26 09:35:31;;;;;;;15.52;7.32;;;4.90;99.90;;;;;;5109769;28;20046;-59
2022/01/26 09:37:56;;;;;;;18.33;7.68;;;5.00;99.90;;;;;;5107419;28;20040;-60
2022/01/26 09:40:23;;;;;;;15.40;7.13;;;5.00;99.90;;;;;;5109632;28;20060;-59
2022/01/26 09:42:49;;;;;;;20.08;7.20;;;5.10;99.90;;;;;;5101267;28;20028;-58
2022/01/26 09:45:15;;;;;;;18.05;7.28;;;5.30;99.90;;;;;;5109545;28;20052;-59
2022/01/26 09:47:43;;;;;;;16.27;7.53;;;5.50;99.90;;;;;;5107510;28;20058;-58
2022/01/26 09:50:08;;;;;;;15.60;7.30;;;5.60;99.90;;;;;;5109329;28;20026;-59
2022/01/26 09:52:40;;;;;;;15.70;7.13;;;5.50;99.90;;;;;;5109467;28;20140;-59
2022/01/26 09:55:06;;;;;;;16.75;6.38;;;5.50;99.90;;;;;;5108962;28;20051;-59
2022/01/26 09:57:31;;;;;;;11.63;5.85;;;5.70;99.90;;;;;;5109340;28;20043;-59
2022/01/26 09:59:58;;;;;;;12.35;6.20;;;5.80;99.90;;;;;;5087688;28;20042;-59
2022/01/26 10:02:33;;;;;;;11.32;5.50;;;5.90;99.90;;;;;;5108644;28;20020;-59
2022/01/26 10:05:11;;;;;;;12.07;5.60;;;5.90;99.90;;;;;;5106648;28;20032;-59
2022/01/26 10:08:06;;;;;;;10.40;5.35;;;5.90;99.90;;;;;;5108668;28;20036;-59
2022/01/26 10:16:05;;;;;;;16.98;6.60;;;5.70;99.90;;;;;;5108140;28;20035;-59
2022/01/26 10:18:33;;;;;;;10.48;5.15;;;5.60;99.90;;;;;;5099679;28;20036;-60
2022/01/26 10:21:01;;;;;;;11.55;6.20;;;5.60;99.90;;;;;;5108475;28;20024;-60
2022/01/26 10:23:29;;;;;;;11.73;5.65;;;5.60;99.90;;;;;;5106802;28;20028;-59
2022/01/26 10:26:12;;;;;;;15.52;7.63;;;5.60;99.90;;;;;;5108839;28;20030;-59
2022/01/26 10:28:43;;;;;;;13.52;6.15;;;5.70;99.90;;;;;;5094810;28;20031;-59
2022/01/26 10:31:22;;;;;;;11.98;5.63;;;5.80;99.90;;;;;;5107533;28;20080;-59
2022/01/26 10:34:09;;;;;;;13.13;5.53;;;5.80;99.90;;;;;;5096082;28;20126;-58
2022/01/26 10:36:43;;;;;;;11.27;5.60;;;5.80;99.90;;;;;;5088230;28;20117;-59
2022/01/26 10:39:11;;;;;;;13.15;6.57;;;5.80;99.90;;;;;;5106231;28;20038;-59
2022/01/26 10:41:39;;;;;;;10.48;5.30;;;5.60;99.90;;;;;;5108356;28;20045;-59
2022/01/26 10:44:05;;;;;;;9.18;4.50;;;5.60;99.90;;;;;;5087432;28;20103;-59
2022/01/26 10:46:36;;;;;;;11.10;5.70;;;5.50;99.90;;;;;;5107812;28;20505;-59
2022/01/26 10:54:35;;;;;;;12.00;5.68;;;5.60;99.90;;;;;;5099330;28;20038;-59
2022/01/26 10:57:02;;;;;;;11.88;5.88;;;5.70;99.90;;;;;;5087614;28;20028;-60
2022/01/26 10:59:27;;;;;;;10.27;5.28;;;5.80;99.90;;;;;;5105796;28;20081;-59
2022/01/26 11:01:54;;;;;;;9.85;5.30;;;5.80;99.90;;;;;;5108354;28;20099;-59
2022/01/26 11:04:19;;;;;;;9.18;4.50;;;5.80;99.90;;;;;;5091925;28;20503;-59
2022/01/26 11:06:52;;;;;;;9.02;4.78;;;5.80;99.90;;;;;;5107549;28;20028;-59
2022/01/26 11:09:23;;;;;;;8.35;5.13;;;5.80;99.90;;;;;;5099651;28;20039;-60
2022/01/26 11:11:59;;;;;;;8.95;4.47;;;5.80;99.90;;;;;;5088024;28;20398;-59
2022/01/26 11:14:25;;;;;;;7.65;3.85;;;5.80;99.90;;;;;;5101099;28;20035;-59
2022/01/26 11:17:00;;;;;;;10.38;4.82;;;5.70;99.90;;;;;;5105697;28;20031;-60
2022/01/26 11:19:26;;;;;;;10.07;6.03;;;5.60;99.90;;;;;;5094624;28;20694;-60
2022/01/26 11:21:52;;;;;;;11.00;5.80;;;5.40;99.90;;;;;;5105989;28;20036;-59
2022/01/26 11:24:23;;;;;;;8.52;4.63;;;5.10;99.90;;;;;;5108118;28;20031;-60
2022/01/26 11:27:01;;;;;;;8.95;4.00;;;5.00;99.90;;;;;;5095646;28;20036;-59
2022/01/26 11:29:33;;;;;;;10.73;4.75;;;4.90;99.90;;;;;;5088355;28;20063;-60
2022/01/26 11:32:10;;;;;;;12.88;5.88;;;4.90;99.90;;;;;;5100917;28;20104;-60
2022/01/26 11:34:36;;;;;;;8.05;4.55;;;4.70;99.90;;;;;;5092050;28;20032;-60
2022/01/26 11:37:04;;;;;;;9.00;5.00;;;4.70;99.90;;;;;;5109648;28;20042;-60
2022/01/26 11:45:16;;;;;;;12.65;5.50;;;4.60;99.90;;;;;;5112099;28;20505;-59
2022/01/26 11:47:56;;;;;;;9.85;4.93;;;4.60;99.90;;;;;;5104671;28;20548;-60
2022/01/26 11:50:21;;;;;;;9.30;4.97;;;4.60;99.90;;;;;;5096128;28;20039;-60
2022/01/26 11:53:04;;;;;;;12.63;5.35;;;4.50;99.90;;;;;;5109823;28;20534;-59
2022/01/26 11:55:43;;;;;;;11.98;6.20;;;4.40;99.90;;;;;;5112149;28;20110;-59
2022/01/26 11:58:16;;;;;;;12.43;6.25;;;4.50;99.90;;;;;;5109353;28;20035;-60
2022/01/26 12:01:10;;;;;;;8.32;5.00;;;4.40;99.90;;;;;;5111819;28;20027;-59
2022/01/26 12:03:43;;;;;;;8.85;4.60;;;4.40;99.90;;;;;;5098708;28;20045;-59
2022/01/26 12:06:18;;;;;;;9.30;5.00;;;4.40;99.90;;;;;;5091397;28;20024;-59
2022/01/26 12:08:45;;;;;;;12.18;5.00;;;4.30;99.90;;;;;;5109668;28;20039;-59
2022/01/26 12:11:12;;;;;;;8.57;4.43;;;4.30;99.90;;;;;;5111423;28;20651;-59
2022/01/26 12:13:39;;;;;;;10.02;4.88;;;4.30;99.90;;;;;;5108624;28;20151;-58
2022/01/26 12:16:13;;;;;;;10.90;5.05;;;4.20;99.90;;;;;;5111518;28;20027;-59
2022/01/26 12:19:51;;;;;;;11.95;4.95;;;4.20;99.90;;;;;;5098947;28;20062;-59
2022/01/26 12:36:31;;;;;;;9.88;5.25;;;4.00;99.90;;;;;;5098942;28;20023;-60
2022/01/26 12:43:11;;;;;;;10.57;4.80;;;3.90;99.90;;;;;;5088373;28;20331;-59
2022/01/26 12:46:37;;;;;;;9.10;4.45;;;3.90;99.90;;;;;;5089963;28;20039;-61
2022/01/26 12:50:02;;;;;;;13.40;5.47;;;3.90;99.90;;;;;;5104038;28;20077;-61
2022/01/26 12:53:27;;;;;;;8.05;3.92;;;3.80;99.90;;;;;;5102412;28;20051;-60
2022/01/26 12:56:53;;;;;;;10.50;5.22;;;3.80;99.90;;;;;;5110503;28;20085;-61
2022/01/26 13:00:18;;;;;;;10.68;4.70;;;3.80;99.90;;;;;;5105451;28;20116;-60
2022/01/26 13:03:56;;;;;;;13.98;5.97;;;3.70;99.90;;;;;;5105694;28;20028;-61
2022/01/26 13:07:27;;;;;;;12.30;5.03;;;3.70;99.90;;;;;;5103756;28;20038;-60
2022/01/26 13:10:54;;;;;;;12.65;5.88;;;3.70;99.90;;;;;;5103244;28;20032;-60
2022/01/26 13:14:30;;;;;;;9.68;4.63;;;3.60;99.90;;;;;;5104754;28;20406;-61
2022/01/26 13:18:03;;;;;;;10.60;4.75;;;3.60;99.90;;;;;;5107599;28;20066;-61
2022/01/26 13:28:04;;;;;;;10.45;4.03;;;3.70;99.90;;;;;;5089629;28;20043;-60
2022/01/26 13:34:56;;;;;;;7.25;3.72;;;3.70;99.90;;;;;;5101960;28;20049;-61
2022/01/26 13:41:28;;;;;;;9.82;4.25;;;3.90;99.90;;;;;;5089405;28;20063;-60
2022/01/26 13:45:11;;;;;;;5.65;3.60;;;3.90;99.90;;;;;;5100339;28;20044;-61
2022/01/26 13:51:36;;;;;;;7.25;3.55;;;3.80;99.90;;;;;;5109457;28;20028;-60
2022/01/26 13:55:04;;;;;;;7.72;4.38;;;3.80;99.90;;;;;;5099304;28;20027;-59
2022/01/26 14:01:21;;;;;;;6.97;3.42;;;3.80;99.90;;;;;;5109086;28;20576;-60
2022/01/26 14:04:46;;;;;;;7.78;4.18;;;3.80;99.90;;;;;;5101017;28;20035;-60
2022/01/26 14:08:11;;;;;;;8.27;4.22;;;3.80;99.90;;;;;;5101301;28;20657;-59
2022/01/26 14:11:37;;;;;;;10.38;4.72;;;3.70;99.90;;;;;;5108744;28;20043;-60
2022/01/26 14:15:06;;;;;;;8.40;4.20;;;3.70;99.90;;;;;;5102334;28;20035;-60
2022/01/26 14:22:27;;;;;;;9.88;4.82;;;3.70;99.90;;;;;;5108810;28;20107;-60
2022/01/26 14:28:10;;;;;;;11.48;4.93;;;3.60;99.90;;;;;;5088507;28;19908;-61
2022/01/26 14:31:53;;;;;;;13.27;5.50;;;3.60;99.90;;;;;;5101563;28;20514;-60
2022/01/26 15:29:59;;;;;;;32.70;9.82;;;2.80;99.90;;;;;;5085707;28;20046;-60
2022/01/26 15:31:13;;;;;;;35.85;11.38;;;2.80;99.90;;;;;;5097219;28;20023;-60
2022/01/26 15:33:34;;;;;;;35.78;12.32;;;2.80;99.90;;;;;;5088530;28;20032;-61
2022/01/26 15:40:04;;;;;;;35.45;11.93;;;2.70;99.90;;;;;;5087007;28;20024;-60
2022/01/26 15:41:53;;;;;;;40.83;12.65;;;2.70;99.90;;;;;;5098546;28;20519;-62
2022/01/26 15:44:25;;;;;;;37.15;12.65;;;2.70;99.90;;;;;;5105813;28;20020;-60
2022/01/26 15:49:49;;;;;;;33.03;11.65;;;2.60;99.90;;;;;;5109187;28;20035;-61
2022/01/26 15:52:41;;;;;;;40.78;12.90;;;2.60;99.90;;;;;;5093255;28;20024;-61
2022/01/26 16:16:57;;;;;;;35.58;12.10;;;2.50;99.90;;;;;;5109702;28;20026;-61
2022/01/26 16:20:12;;;;;;;35.35;11.65;;;2.50;99.90;;;;;;5096935;28;20067;-61
2022/01/26 16:28:22;;;;;;;38.28;12.63;;;2.50;99.90;;;;;;5091513;28;20055;-61
2022/01/26 16:38:47;;;;;;;32.22;11.30;;;2.50;99.90;;;;;;5110871;28;20038;-62
2022/01/26 17:11:39;;;;;;;43.70;13.65;;;2.70;99.90;;;;;;5110430;28;20100;-62
2022/01/26 17:24:19;;;;;;;45.55;13.23;;;2.60;99.90;;;;;;5101570;28;20081;-62
2022/01/26 17:25:26;;;;;;;48.88;15.40;;;2.60;99.90;;;;;;5089812;28;20035;-61
2022/01/26 18:04:00;;;;;;;67.53;20.60;;;2.70;99.90;;;;;;5104982;28;20097;-60
2022/01/26 18:06:58;;;;;;;60.17;17.58;;;2.70;99.90;;;;;;5099964;28;20096;-61
2022/01/26 18:32:30;;;;;;;71.22;22.75;;;2.90;99.90;;;;;;5108649;28;20119;-59
2022/01/26 18:52:17;;;;;;;88.07;26.08;;;2.90;99.90;;;;;;5108508;28;20045;-60
2022/01/26 18:55:43;;;;;;;80.43;23.67;;;2.90;99.90;;;;;;5103574;28;20028;-61
2022/01/26 18:59:08;;;;;;;91.45;27.38;;;2.90;99.90;;;;;;5104351;28;20578;-60
2022/01/26 19:02:34;;;;;;;78.25;26.05;;;2.90;99.90;;;;;;5096414;28;20074;-61
2022/01/26 19:06:01;;;;;;;75.90;24.67;;;2.90;99.90;;;;;;5103810;28;20027;-60
2022/01/26 19:09:27;;;;;;;104.15;29.50;;;2.90;99.90;;;;;;5105456;28;20388;-60
2022/01/26 19:12:51;;;;;;;74.22;23.60;;;2.90;99.90;;;;;;5102654;28;20071;-61
2022/01/26 19:19:53;;;;;;;86.93;28.23;;;2.90;99.90;;;;;;5088391;28;20092;-60
2022/01/26 19:23:24;;;;;;;91.30;28.63;;;3.00;99.90;;;;;;5103236;28;20659;-61
2022/01/26 19:26:38;;;;;;;85.43;27.30;;;2.90;99.90;;;;;;5082091;28;20095;-61
2022/01/26 19:47:10;;;;;;;84.40;27.27;;;3.00;99.90;;;;;;5087741;28;20047;-60
2022/01/26 19:53:37;;;;;;;86.72;25.60;;;2.90;99.90;;;;;;5089332;28;20129;-59
2022/01/26 19:57:03;;;;;;;87.65;28.30;;;3.00;99.90;;;;;;5103521;28;20111;-61
2022/01/26 20:00:28;;;;;;;72.20;24.20;;;3.00;99.90;;;;;;5103295;28;20546;-59
2022/01/26 20:03:53;;;;;;;74.68;24.60;;;3.00;99.90;;;;;;5103249;28;20035;-60
2022/01/26 20:07:24;;;;;;;75.75;23.50;;;3.00;99.90;;;;;;5099920;28;20086;-59
2022/01/26 20:10:51;;;;;;;93.70;28.83;;;3.00;99.90;;;;;;5105256;28;20414;-59
2022/01/26 20:14:09;;;;;;;82.40;26.20;;;3.00;99.90;;;;;;5107286;28;20042;-61
2022/01/26 20:17:34;;;;;;;74.07;22.45;;;3.10;99.90;;;;;;5101500;28;20029;-60
2022/01/26 20:21:02;;;;;;;75.38;25.13;;;3.10;99.90;;;;;;5103895;28;20043;-60
2022/01/26 20:24:26;;;;;;;71.97;22.63;;;3.10;99.90;;;;;;5108337;28;20128;-60
2022/01/26 20:27:51;;;;;;;76.13;23.10;;;3.10;99.90;;;;;;5086290;28;20808;-59
2022/01/26 20:31:20;;;;;;;72.47;25.40;;;3.10;99.90;;;;;;5100697;28;20088;-60
2022/01/26 20:34:43;;;;;;;70.05;23.85;;;3.10;99.90;;;;;;5107788;28;20036;-60
2022/01/26 20:38:07;;;;;;;71.57;23.30;;;3.10;99.90;;;;;;5102936;28;20043;-60
2022/01/26 20:41:32;;;;;;;69.85;23.75;;;3.20;99.90;;;;;;5104649;28;20123;-60
2022/01/26 20:44:57;;;;;;;71.85;22.25;;;3.20;99.90;;;;;;5081698;28;20610;-61
2022/01/26 20:48:23;;;;;;;64.88;22.58;;;3.20;99.90;;;;;;5105143;28;20039;-60
2022/01/26 20:51:48;;;;;;;70.75;25.25;;;3.20;99.90;;;;;;5100705;28;20087;-59
2022/01/26 20:55:14;;;;;;;77.13;27.48;;;3.20;99.90;;;;;;5108251;28;20480;-60
2022/01/26 20:58:39;;;;;;;65.07;22.80;;;3.20;99.90;;;;;;5102450;28;20040;-59
2022/01/26 21:02:04;;;;;;;68.40;22.27;;;3.20;99.90;;;;;;5103843;28;20059;-59